Time;durP1;ratioP1;P1;durP2;ratioP2;P2;SDS_P1;SDS_P2;PMS_P1;PMS_P2;Temp;Humidity;BMP_temperature;BMP_pressure;BME280_temperature;BME280_humidity;BME280_pressure;Samples;Min_cycle;Max_cycle;Signal;HPM_P1;HPM_P2
2022/01/03 00:00:51;;;;;;;12.48;1.33;;;8.70;99.90;;;;;;5065533;28;20082;-66
2022/01/03 00:03:18;;;;;;;9.82;0.95;;;8.70;99.90;;;;;;5066087;28;20041;-65
2022/01/03 00:05:44;;;;;;;8.15;1.27;;;8.70;99.90;;;;;;5065732;28;20040;-65
2022/01/03 00:08:10;;;;;;;12.07;1.85;;;8.70;99.90;;;;;;5066106;28;20550;-65
2022/01/03 00:10:36;;;;;;;12.32;1.65;;;8.70;99.90;;;;;;5063665;28;20063;-65
2022/01/03 00:13:04;;;;;;;13.25;1.45;;;8.80;99.90;;;;;;5062360;28;20048;-65
2022/01/03 00:15:32;;;;;;;15.27;1.70;;;8.80;99.90;;;;;;5061102;28;20082;-65
2022/01/03 00:17:57;;;;;;;17.17;2.03;;;8.90;99.90;;;;;;5063177;28;20434;-65
2022/01/03 00:20:25;;;;;;;15.50;1.60;;;8.90;99.90;;;;;;5065129;28;20032;-66
2022/01/03 00:23:06;;;;;;;16.90;2.20;;;8.90;99.90;;;;;;5061810;28;20041;-66
2022/01/03 00:25:36;;;;;;;14.25;1.70;;;9.00;99.90;;;;;;5061329;28;20041;-65
2022/01/03 00:28:35;;;;;;;17.38;2.42;;;9.10;99.90;;;;;;5066207;28;20040;-66
2022/01/03 00:31:02;;;;;;;12.15;2.28;;;9.10;99.90;;;;;;5060520;28;20967;-66
2022/01/03 00:33:28;;;;;;;16.92;2.63;;;9.00;99.90;;;;;;5065312;28;20057;-66
2022/01/03 00:36:01;;;;;;;17.65;2.40;;;9.10;99.90;;;;;;5063995;28;20048;-65
2022/01/03 00:38:29;;;;;;;17.30;2.55;;;9.10;99.90;;;;;;5065094;28;20071;-66
2022/01/03 00:40:56;;;;;;;21.58;2.88;;;9.10;99.90;;;;;;5064736;28;20050;-66
2022/01/03 00:43:22;;;;;;;18.20;2.72;;;9.20;99.90;;;;;;5063053;28;20047;-66
2022/01/03 00:45:52;;;;;;;17.95;2.80;;;9.20;99.90;;;;;;5061478;28;20114;-66
2022/01/03 00:48:18;;;;;;;20.35;3.05;;;9.20;99.90;;;;;;5064737;28;20043;-66
2022/01/03 00:50:44;;;;;;;20.98;2.72;;;9.20;99.90;;;;;;5061703;28;20063;-66
2022/01/03 00:53:09;;;;;;;19.35;3.08;;;9.20;99.90;;;;;;5060915;28;20048;-66
2022/01/03 00:55:38;;;;;;;18.58;2.65;;;9.20;99.90;;;;;;5064514;28;20044;-66
2022/01/03 00:58:08;;;;;;;23.08;3.42;;;9.20;99.90;;;;;;5063785;28;20037;-66
2022/01/03 01:00:40;;;;;;;20.35;3.38;;;9.20;99.90;;;;;;5061322;28;20522;-66
2022/01/03 01:03:27;;;;;;;18.38;2.30;;;9.20;99.90;;;;;;5062171;28;20051;-66
2022/01/03 01:05:53;;;;;;;18.50;3.60;;;9.20;99.90;;;;;;5064209;28;20032;-66
2022/01/03 01:08:22;;;;;;;19.35;3.42;;;9.20;99.90;;;;;;5062597;28;20544;-66
2022/01/03 01:10:51;;;;;;;26.13;3.10;;;9.20;99.90;;;;;;5065955;28;20034;-66
2022/01/03 01:13:17;;;;;;;19.75;2.63;;;9.20;99.90;;;;;;5066160;28;20044;-66
2022/01/03 01:15:43;;;;;;;18.60;3.38;;;9.20;99.90;;;;;;5065352;28;20076;-66
2022/01/03 01:18:09;;;;;;;22.38;3.45;;;9.20;99.90;;;;;;5063167;28;20190;-66
2022/01/03 01:20:37;;;;;;;22.73;2.90;;;9.20;99.90;;;;;;5065574;28;20068;-66
2022/01/03 01:23:04;;;;;;;19.02;3.78;;;9.20;99.90;;;;;;5060612;28;20043;-66
2022/01/03 01:28:07;;;;;;;20.67;2.97;;;9.20;99.90;;;;;;5059785;28;20045;-66
2022/01/03 01:30:33;;;;;;;20.33;2.90;;;9.20;99.90;;;;;;5059725;28;20073;-66
2022/01/03 01:33:05;;;;;;;21.50;3.58;;;9.20;99.90;;;;;;5057402;28;20045;-66
2022/01/03 01:35:36;;;;;;;19.55;2.85;;;9.20;99.90;;;;;;5060453;28;20480;-66
2022/01/03 01:38:03;;;;;;;29.05;3.95;;;9.20;99.90;;;;;;5060142;28;20143;-66
2022/01/03 01:40:29;;;;;;;19.70;4.07;;;9.30;99.90;;;;;;5062796;28;20036;-66
2022/01/03 01:42:56;;;;;;;21.30;2.75;;;9.20;99.90;;;;;;5064702;28;20056;-66
2022/01/03 01:45:26;;;;;;;22.35;3.28;;;9.20;99.90;;;;;;5064561;28;20443;-66
2022/01/03 01:47:57;;;;;;;23.02;3.97;;;9.20;99.90;;;;;;5062656;28;20500;-66
2022/01/03 01:50:27;;;;;;;16.65;2.33;;;9.30;99.90;;;;;;5064435;28;20036;-66
2022/01/03 01:52:54;;;;;;;16.70;2.67;;;9.30;99.90;;;;;;5060572;28;20136;-67
2022/01/03 01:55:20;;;;;;;25.33;3.15;;;9.20;99.90;;;;;;5060064;28;20044;-66
2022/01/03 01:58:10;;;;;;;22.60;3.45;;;9.20;99.90;;;;;;5064258;28;20037;-67
2022/01/03 02:00:36;;;;;;;13.63;2.70;;;9.20;99.90;;;;;;5063877;28;20036;-66
2022/01/03 02:03:06;;;;;;;21.20;2.28;;;9.10;99.90;;;;;;5059934;28;20044;-66
2022/01/03 02:05:44;;;;;;;16.73;2.58;;;9.10;99.90;;;;;;5062252;28;20043;-67
2022/01/03 02:08:37;;;;;;;23.05;4.25;;;9.10;99.90;;;;;;5063697;28;20130;-66
2022/01/03 02:11:12;;;;;;;19.35;2.85;;;9.10;99.90;;;;;;5038392;28;20492;-66
2022/01/03 02:13:39;;;;;;;21.67;3.03;;;9.10;99.90;;;;;;5058765;28;20187;-67
2022/01/03 02:16:05;;;;;;;16.10;3.13;;;9.10;99.90;;;;;;5066223;28;20040;-66
2022/01/03 02:18:32;;;;;;;19.00;3.38;;;9.10;99.90;;;;;;5069415;28;20395;-66
2022/01/03 02:20:58;;;;;;;18.40;2.67;;;9.10;99.90;;;;;;5062728;28;20040;-66
2022/01/03 02:23:24;;;;;;;20.45;3.30;;;9.10;99.90;;;;;;5065407;28;20044;-66
2022/01/03 02:25:50;;;;;;;21.50;2.92;;;9.00;99.90;;;;;;5068721;28;20040;-66
2022/01/03 02:28:20;;;;;;;23.92;3.88;;;9.00;99.90;;;;;;5066641;28;20036;-66
2022/01/03 02:30:46;;;;;;;25.38;3.92;;;9.00;99.90;;;;;;5067696;28;20048;-66
2022/01/03 02:33:12;;;;;;;21.38;3.47;;;9.00;99.90;;;;;;5066823;28;20029;-66
2022/01/03 02:35:41;;;;;;;20.58;3.42;;;8.90;99.90;;;;;;5066072;28;20036;-66
2022/01/03 02:38:07;;;;;;;22.88;2.92;;;8.90;99.90;;;;;;5065581;28;20033;-66
2022/01/03 02:40:33;;;;;;;20.80;3.25;;;8.80;99.90;;;;;;5068130;28;20830;-67
2022/01/03 02:42:59;;;;;;;24.48;3.15;;;8.80;99.90;;;;;;5067936;28;20040;-67
2022/01/03 02:45:26;;;;;;;18.77;3.65;;;8.80;99.90;;;;;;5064060;28;20475;-67
2022/01/03 02:48:01;;;;;;;24.05;3.60;;;8.80;99.90;;;;;;5065889;28;20170;-67
2022/01/03 02:50:29;;;;;;;20.60;2.97;;;8.80;99.90;;;;;;5067593;28;20081;-67
2022/01/03 02:52:55;;;;;;;21.15;3.42;;;8.70;99.90;;;;;;5061419;28;20052;-67
2022/01/03 02:55:23;;;;;;;23.33;2.97;;;8.70;99.90;;;;;;5065491;28;20147;-67
2022/01/03 02:57:51;;;;;;;18.10;3.38;;;8.70;99.90;;;;;;5068275;28;20045;-67
2022/01/03 03:00:20;;;;;;;26.20;4.32;;;8.80;99.90;;;;;;5067317;28;20040;-67
2022/01/03 03:02:46;;;;;;;18.17;3.38;;;8.70;99.90;;;;;;5064408;28;20037;-67
2022/01/03 03:05:12;;;;;;;21.80;3.13;;;8.80;99.90;;;;;;5066395;28;20035;-67
2022/01/03 03:07:39;;;;;;;28.77;3.95;;;8.80;99.90;;;;;;5061689;28;20071;-67
2022/01/03 03:10:08;;;;;;;23.48;4.18;;;8.70;99.90;;;;;;5064165;28;20499;-66
2022/01/03 03:12:34;;;;;;;22.20;3.22;;;8.70;99.90;;;;;;5066289;28;20068;-67
2022/01/03 03:14:59;;;;;;;26.77;3.88;;;8.70;99.90;;;;;;5067959;28;20074;-67
2022/01/03 03:17:25;;;;;;;31.33;3.80;;;8.70;99.90;;;;;;5064698;28;20035;-66
2022/01/03 03:19:57;;;;;;;22.45;3.35;;;8.70;99.90;;;;;;5063699;28;20043;-66
2022/01/03 03:22:24;;;;;;;20.85;3.63;;;8.70;99.90;;;;;;5063205;28;20052;-67
2022/01/03 03:24:50;;;;;;;20.77;3.90;;;8.70;99.90;;;;;;5061377;28;20128;-67
2022/01/03 03:27:16;;;;;;;21.67;3.22;;;8.70;99.90;;;;;;5064242;28;20283;-67
2022/01/03 03:29:47;;;;;;;20.40;3.20;;;8.70;99.90;;;;;;5066768;28;20036;-67
2022/01/03 03:32:13;;;;;;;26.55;4.13;;;8.70;99.90;;;;;;5065429;28;20455;-67
2022/01/03 03:34:39;;;;;;;23.00;3.78;;;8.70;99.90;;;;;;5066156;28;20044;-67
2022/01/03 03:37:05;;;;;;;22.88;4.60;;;8.80;99.90;;;;;;5066241;28;20036;-67
2022/01/03 03:39:33;;;;;;;27.73;4.05;;;8.70;99.90;;;;;;5064685;28;20119;-67
2022/01/03 03:42:00;;;;;;;28.58;3.97;;;8.70;99.90;;;;;;5061483;28;20087;-67
2022/01/03 03:44:26;;;;;;;20.10;3.17;;;8.80;99.90;;;;;;5057753;28;20040;-67
2022/01/03 03:46:52;;;;;;;24.25;3.92;;;8.80;99.90;;;;;;5060575;28;20040;-67
2022/01/03 03:49:18;;;;;;;23.00;3.33;;;8.70;99.90;;;;;;5058825;28;20523;-67
2022/01/03 03:51:43;;;;;;;21.75;4.35;;;8.80;99.90;;;;;;5061300;28;20451;-67
2022/01/03 03:54:09;;;;;;;22.92;4.25;;;8.80;99.90;;;;;;5067322;28;20458;-67
2022/01/03 03:56:35;;;;;;;25.23;4.32;;;8.90;99.90;;;;;;5059835;28;20044;-67
2022/01/03 03:59:00;;;;;;;22.15;3.47;;;8.90;99.90;;;;;;5066318;28;20485;-67
2022/01/03 04:01:26;;;;;;;19.38;3.65;;;8.90;99.90;;;;;;5065239;28;20423;-65
2022/01/03 04:03:52;;;;;;;22.83;3.92;;;8.90;99.90;;;;;;5063598;28;20033;-66
2022/01/03 04:06:19;;;;;;;19.55;3.40;;;8.90;99.90;;;;;;5064604;28;20563;-66
2022/01/03 04:08:45;;;;;;;23.45;4.03;;;9.00;99.90;;;;;;5062193;28;20153;-67
2022/01/03 04:11:15;;;;;;;23.52;4.40;;;9.00;99.90;;;;;;5062884;28;20178;-66
2022/01/03 04:13:41;;;;;;;22.30;3.42;;;9.00;99.90;;;;;;5061724;28;20052;-66
2022/01/03 04:16:07;;;;;;;24.42;3.55;;;9.00;99.90;;;;;;5064667;28;20067;-66
2022/01/03 04:18:34;;;;;;;28.15;4.65;;;9.00;99.90;;;;;;5062955;28;20047;-67
2022/01/03 04:21:00;;;;;;;23.58;3.92;;;9.10;99.90;;;;;;5066184;28;20072;-67
2022/01/03 04:23:26;;;;;;;28.50;4.20;;;9.10;99.90;;;;;;5064214;28;20052;-67
2022/01/03 04:25:51;;;;;;;29.70;4.40;;;9.10;99.90;;;;;;5062299;28;20045;-67
2022/01/03 04:28:18;;;;;;;29.23;4.68;;;9.10;99.90;;;;;;5064205;28;20109;-66
2022/01/03 04:30:45;;;;;;;26.75;3.92;;;9.20;99.90;;;;;;5067614;28;20029;-66
2022/01/03 04:33:11;;;;;;;24.30;3.35;;;9.20;99.90;;;;;;5065095;28;20439;-66
2022/01/03 04:35:37;;;;;;;33.80;4.68;;;9.20;99.90;;;;;;5061755;28;20057;-66
2022/01/03 04:38:03;;;;;;;20.67;3.17;;;9.20;99.90;;;;;;5066342;28;20333;-66
2022/01/03 04:40:29;;;;;;;25.08;4.38;;;9.30;99.90;;;;;;5061239;28;20048;-67
2022/01/03 04:42:55;;;;;;;23.77;3.80;;;9.20;99.90;;;;;;5062913;28;20048;-66
2022/01/03 04:45:21;;;;;;;23.02;4.18;;;9.30;99.90;;;;;;5062043;28;20032;-66
2022/01/03 04:47:46;;;;;;;23.80;3.83;;;9.30;99.90;;;;;;5061716;28;20029;-66
2022/01/03 04:50:12;;;;;;;24.60;4.50;;;9.30;99.90;;;;;;5064735;28;20036;-66
2022/01/03 04:52:38;;;;;;;31.58;4.38;;;9.30;99.90;;;;;;5065324;28;20056;-66
2022/01/03 04:55:05;;;;;;;25.75;3.88;;;9.30;99.90;;;;;;5063516;28;20040;-66
2022/01/03 04:57:30;;;;;;;28.73;4.68;;;9.30;99.90;;;;;;5061628;28;20401;-66
2022/01/03 04:59:56;;;;;;;24.95;4.43;;;9.30;99.90;;;;;;5066059;28;20047;-66
2022/01/03 05:02:22;;;;;;;24.10;4.35;;;9.30;99.90;;;;;;5065037;28;20119;-66
2022/01/03 05:04:48;;;;;;;28.40;4.80;;;9.30;99.90;;;;;;5062457;28;20048;-66
2022/01/03 05:07:13;;;;;;;20.73;3.42;;;9.30;99.90;;;;;;5065078;28;20047;-66
2022/01/03 05:09:39;;;;;;;24.40;3.97;;;9.30;99.90;;;;;;5062889;28;20028;-67
2022/01/03 05:12:05;;;;;;;24.45;4.07;;;9.30;99.90;;;;;;5064695;28;20640;-67
2022/01/03 05:14:31;;;;;;;29.75;4.53;;;9.30;99.90;;;;;;5064870;28;20404;-67
2022/01/03 05:16:57;;;;;;;31.90;5.78;;;9.30;99.90;;;;;;5062339;28;20134;-67
2022/01/03 05:19:24;;;;;;;27.92;4.47;;;9.30;99.90;;;;;;5062829;28;20048;-67
2022/01/03 05:21:51;;;;;;;24.90;4.72;;;9.30;99.90;;;;;;5062213;28;20086;-67
2022/01/03 05:24:17;;;;;;;29.42;5.30;;;9.30;99.90;;;;;;5064951;28;20040;-67
2022/01/03 05:26:43;;;;;;;31.48;4.82;;;9.30;99.90;;;;;;5060832;28;21746;-67
2022/01/03 05:29:09;;;;;;;26.10;5.05;;;9.30;99.90;;;;;;5064121;28;20147;-67
2022/01/03 05:31:35;;;;;;;21.33;4.03;;;9.20;99.90;;;;;;5062976;28;20515;-67
2022/01/03 05:34:00;;;;;;;30.00;4.60;;;9.20;99.90;;;;;;5061042;28;20032;-67
2022/01/03 05:36:27;;;;;;;27.13;5.25;;;9.10;99.90;;;;;;5063750;28;20051;-67
2022/01/03 05:38:53;;;;;;;27.45;3.95;;;9.20;99.90;;;;;;5064246;28;20139;-67
2022/01/03 05:41:19;;;;;;;33.22;4.35;;;9.00;99.90;;;;;;5062437;28;20128;-67
2022/01/03 05:43:45;;;;;;;29.08;5.05;;;9.00;99.90;;;;;;5060608;28;20564;-67
2022/01/03 05:46:12;;;;;;;25.40;4.10;;;9.00;99.90;;;;;;5063341;28;20040;-67
2022/01/03 05:48:37;;;;;;;29.50;4.30;;;9.00;99.90;;;;;;5060283;28;20044;-67
2022/01/03 05:51:04;;;;;;;29.98;4.28;;;8.90;99.90;;;;;;5067984;28;20040;-67
2022/01/03 05:53:30;;;;;;;29.02;4.68;;;8.90;99.90;;;;;;5068191;28;21708;-67
2022/01/03 05:55:57;;;;;;;22.48;3.88;;;8.90;99.90;;;;;;5064604;28;20603;-67
2022/01/03 05:58:23;;;;;;;26.35;4.25;;;8.90;99.90;;;;;;5064735;28;20051;-67
2022/01/03 06:00:49;;;;;;;23.67;4.53;;;8.90;99.90;;;;;;5065529;28;20029;-67
2022/01/03 06:03:17;;;;;;;27.27;4.53;;;8.90;99.90;;;;;;5059476;28;20519;-67
2022/01/03 06:08:21;;;;;;;24.88;4.57;;;9.00;99.90;;;;;;5061343;28;20041;-67
2022/01/03 06:10:47;;;;;;;27.75;5.35;;;8.90;99.90;;;;;;5067333;28;20027;-67
2022/01/03 06:13:13;;;;;;;27.92;4.32;;;9.00;99.90;;;;;;5068210;28;20131;-67
2022/01/03 06:15:40;;;;;;;27.48;5.15;;;9.00;99.90;;;;;;5051093;28;20044;-67
2022/01/03 06:18:10;;;;;;;29.67;4.25;;;8.90;99.90;;;;;;5064854;28;20048;-67
2022/01/03 06:20:38;;;;;;;29.30;5.00;;;8.90;99.90;;;;;;5065184;28;20041;-66
2022/01/03 06:23:03;;;;;;;28.60;4.07;;;8.80;99.90;;;;;;5064607;28;20048;-66
2022/01/03 06:25:29;;;;;;;31.20;5.03;;;8.80;99.90;;;;;;5068399;28;20028;-66
2022/01/03 06:27:55;;;;;;;36.38;4.45;;;8.80;99.90;;;;;;5064204;28;20032;-66
2022/01/03 06:30:20;;;;;;;28.95;4.30;;;8.70;99.90;;;;;;5066067;28;20094;-66
2022/01/03 06:32:46;;;;;;;28.35;4.78;;;8.70;99.90;;;;;;5064380;28;20032;-67
2022/01/03 06:35:12;;;;;;;24.38;4.43;;;8.80;99.90;;;;;;5063843;28;20060;-66
2022/01/03 06:37:38;;;;;;;32.35;9.82;;;8.70;99.90;;;;;;5065790;28;20041;-66
2022/01/03 06:40:06;;;;;;;30.13;5.53;;;8.70;99.90;;;;;;5067354;28;20515;-66
2022/01/03 06:42:32;;;;;;;30.52;5.00;;;8.70;99.90;;;;;;5064726;28;20059;-66
2022/01/03 06:44:58;;;;;;;26.10;3.92;;;8.70;99.90;;;;;;5067268;28;20052;-67
2022/01/03 06:47:24;;;;;;;38.88;5.78;;;8.70;99.90;;;;;;5066850;28;20083;-66
2022/01/03 06:49:50;;;;;;;27.40;4.07;;;8.70;99.90;;;;;;5065490;28;20323;-66
2022/01/03 06:52:16;;;;;;;26.02;4.00;;;8.70;99.90;;;;;;5064811;28;20135;-66
2022/01/03 06:54:41;;;;;;;24.38;4.50;;;8.80;99.90;;;;;;5066132;28;20484;-66
2022/01/03 06:57:07;;;;;;;28.30;4.55;;;8.80;99.90;;;;;;5064655;28;20048;-66
2022/01/03 06:59:33;;;;;;;31.50;4.40;;;8.80;99.90;;;;;;5065926;28;20071;-66
2022/01/03 07:01:59;;;;;;;27.75;4.07;;;8.80;99.90;;;;;;5058700;28;20049;-66
2022/01/03 07:04:25;;;;;;;29.83;4.95;;;8.80;99.90;;;;;;5068030;28;20086;-67
2022/01/03 07:06:51;;;;;;;23.90;4.50;;;8.80;99.90;;;;;;5063141;28;20134;-67
2022/01/03 07:09:17;;;;;;;32.92;5.47;;;8.90;99.90;;;;;;5066490;28;20041;-67
2022/01/03 07:11:42;;;;;;;33.42;6.57;;;8.80;99.90;;;;;;5067291;28;20044;-67
2022/01/03 07:19:38;;;;;;;34.00;4.53;;;8.80;99.90;;;;;;5059094;28;21322;-67
2022/01/03 07:22:07;;;;;;;22.90;4.28;;;8.80;99.90;;;;;;5057769;28;20051;-67
2022/01/03 07:24:37;;;;;;;35.20;5.30;;;8.80;99.90;;;;;;5063783;28;20052;-67
2022/01/03 07:27:04;;;;;;;32.60;4.90;;;8.80;99.90;;;;;;5058111;28;20373;-67
2022/01/03 07:29:30;;;;;;;31.77;4.70;;;8.80;99.90;;;;;;5060293;28;20150;-67
2022/01/03 07:31:56;;;;;;;28.35;5.00;;;8.80;99.90;;;;;;5059563;28;20497;-67
2022/01/03 07:34:22;;;;;;;26.15;4.60;;;9.00;99.90;;;;;;5059771;28;20131;-67
2022/01/03 07:36:48;;;;;;;27.52;3.97;;;8.90;99.90;;;;;;5060066;28;20472;-66
2022/01/03 07:39:13;;;;;;;27.90;4.22;;;9.00;99.90;;;;;;5064734;28;20039;-67
2022/01/03 07:41:39;;;;;;;33.05;6.10;;;9.00;99.90;;;;;;5054660;28;20099;-67
2022/01/03 07:44:05;;;;;;;28.10;5.05;;;9.00;99.90;;;;;;5060493;28;20057;-67
2022/01/03 07:46:30;;;;;;;25.73;4.22;;;9.10;99.90;;;;;;5061630;28;20041;-67
2022/01/03 07:48:56;;;;;;;36.05;5.90;;;9.10;99.90;;;;;;5066550;28;20515;-67
2022/01/03 07:51:22;;;;;;;31.45;5.25;;;9.10;99.90;;;;;;5043109;28;20489;-67
2022/01/03 07:53:48;;;;;;;31.10;4.90;;;9.10;99.90;;;;;;5059194;28;20048;-67
2022/01/03 07:56:14;;;;;;;28.73;4.97;;;9.10;99.90;;;;;;5061452;28;20036;-67
2022/01/03 07:58:39;;;;;;;31.13;5.00;;;9.10;99.90;;;;;;5060681;28;20079;-67
2022/01/03 08:01:05;;;;;;;39.53;5.43;;;9.10;99.90;;;;;;5059265;28;20119;-67
2022/01/03 08:03:31;;;;;;;36.33;4.82;;;9.20;99.90;;;;;;5063805;28;20139;-67
2022/01/03 08:05:57;;;;;;;33.45;4.65;;;9.20;99.90;;;;;;5039454;28;20053;-67
2022/01/03 08:08:24;;;;;;;31.95;5.25;;;9.20;99.90;;;;;;5055199;28;20043;-67
2022/01/03 08:10:50;;;;;;;34.28;5.40;;;9.20;99.90;;;;;;5061292;28;20194;-67
2022/01/03 08:13:16;;;;;;;32.60;6.35;;;9.20;99.90;;;;;;5060885;28;20041;-67
2022/01/03 08:15:42;;;;;;;40.40;5.32;;;9.20;99.90;;;;;;5061260;28;20451;-67
2022/01/03 08:18:08;;;;;;;30.00;4.47;;;9.30;99.90;;;;;;5062698;28;20040;-67
2022/01/03 08:20:35;;;;;;;31.42;4.75;;;9.30;99.90;;;;;;5055002;28;20388;-68
2022/01/03 08:23:01;;;;;;;33.00;5.32;;;9.30;99.90;;;;;;5061430;28;20487;-67
2022/01/03 08:25:27;;;;;;;33.25;5.07;;;9.40;99.90;;;;;;5058540;28;20049;-67
2022/01/03 08:27:53;;;;;;;32.22;5.32;;;9.40;99.90;;;;;;5062072;28;20032;-67
2022/01/03 08:30:19;;;;;;;29.17;4.78;;;9.50;99.90;;;;;;5065458;28;20063;-67
2022/01/03 08:32:45;;;;;;;28.70;5.03;;;9.50;99.90;;;;;;5055780;28;20033;-67
2022/01/03 08:35:10;;;;;;;25.48;4.55;;;9.50;99.90;;;;;;5065451;28;20119;-68
2022/01/03 08:37:36;;;;;;;41.75;8.57;;;9.60;99.90;;;;;;5060814;28;20067;-67
2022/01/03 08:40:06;;;;;;;28.45;4.57;;;9.60;99.90;;;;;;5058156;28;20037;-67
2022/01/03 08:42:33;;;;;;;31.13;5.93;;;9.60;99.90;;;;;;5063586;28;20036;-68
2022/01/03 08:44:58;;;;;;;28.63;5.55;;;9.50;99.90;;;;;;5055961;28;20531;-67
2022/01/03 08:47:24;;;;;;;24.83;3.97;;;9.50;99.90;;;;;;5058860;28;20036;-67
2022/01/03 08:49:50;;;;;;;29.80;5.53;;;9.50;99.90;;;;;;5060336;28;20529;-67
2022/01/03 08:52:15;;;;;;;22.70;4.75;;;9.60;99.90;;;;;;5062530;28;20365;-67
2022/01/03 08:54:41;;;;;;;24.95;3.92;;;9.60;99.90;;;;;;5064489;28;20040;-67
2022/01/03 08:57:07;;;;;;;31.70;5.40;;;9.60;99.90;;;;;;5056250;28;20405;-67
2022/01/03 08:59:33;;;;;;;26.65;4.32;;;9.60;99.90;;;;;;5061249;28;20506;-67
2022/01/03 09:01:59;;;;;;;25.45;5.25;;;9.70;99.90;;;;;;5059743;28;20067;-67
2022/01/03 09:04:25;;;;;;;25.80;4.25;;;9.70;99.90;;;;;;5063229;28;20063;-67
2022/01/03 09:06:52;;;;;;;23.35;5.10;;;9.70;99.90;;;;;;5061050;28;20041;-67
2022/01/03 09:09:19;;;;;;;27.50;4.45;;;9.70;99.90;;;;;;5063709;28;20419;-67
2022/01/03 09:11:45;;;;;;;35.08;4.50;;;9.70;99.90;;;;;;5060373;28;20045;-67
2022/01/03 09:14:11;;;;;;;25.17;4.97;;;9.70;99.90;;;;;;5062907;28;20099;-67
2022/01/03 09:16:37;;;;;;;25.90;3.90;;;9.70;99.90;;;;;;5060653;28;20102;-67
2022/01/03 09:19:03;;;;;;;28.13;4.63;;;9.70;99.90;;;;;;5059653;28;20040;-67
2022/01/03 09:21:29;;;;;;;28.60;4.85;;;9.80;99.90;;;;;;5062306;28;20129;-67
2022/01/03 09:24:17;;;;;;;29.38;4.38;;;9.80;99.90;;;;;;5064210;28;20044;-67
2022/01/03 09:29:25;;;;;;;80.22;45.72;;;9.80;99.90;;;;;;5064375;28;20039;-67
2022/01/03 09:31:50;;;;;;;28.17;7.82;;;9.80;99.90;;;;;;5061759;28;20393;-67
2022/01/03 09:34:16;;;;;;;26.63;3.75;;;9.80;99.90;;;;;;5062209;28;20051;-66
2022/01/03 09:36:42;;;;;;;27.88;4.47;;;9.90;99.90;;;;;;5066535;28;20127;-66
2022/01/03 09:39:08;;;;;;;26.13;4.75;;;9.90;99.90;;;;;;5070263;28;20460;-66
2022/01/03 09:41:34;;;;;;;24.00;4.78;;;9.80;99.90;;;;;;5047179;28;20118;-67
2022/01/03 09:44:09;;;;;;;27.85;4.43;;;9.90;99.90;;;;;;5063682;28;20058;-67
2022/01/03 09:46:42;;;;;;;26.73;4.55;;;9.90;99.90;;;;;;5061169;28;20437;-67
2022/01/03 09:49:11;;;;;;;23.13;4.68;;;9.90;99.90;;;;;;5060789;28;20047;-67
2022/01/03 09:51:38;;;;;;;26.40;4.90;;;9.90;99.90;;;;;;5064172;28;20048;-67
2022/01/03 09:54:08;;;;;;;31.45;5.07;;;10.00;99.90;;;;;;5061703;28;20505;-67
2022/01/03 09:56:36;;;;;;;22.65;4.40;;;10.10;99.90;;;;;;5064028;28;20067;-67
2022/01/03 09:59:03;;;;;;;22.80;4.45;;;10.10;99.90;;;;;;5065796;28;20420;-67
2022/01/03 10:01:33;;;;;;;21.42;4.53;;;10.20;99.90;;;;;;5066276;28;20052;-67
2022/01/03 10:04:00;;;;;;;21.90;3.97;;;10.10;99.90;;;;;;5084745;28;20048;-67
2022/01/03 10:06:27;;;;;;;30.63;4.88;;;10.20;99.90;;;;;;5067349;28;20068;-67
2022/01/03 10:08:53;;;;;;;24.55;4.15;;;10.20;99.90;;;;;;5064823;28;20110;-67
2022/01/03 10:11:21;;;;;;;29.20;4.65;;;10.20;99.90;;;;;;5066741;28;20036;-67
2022/01/03 10:13:47;;;;;;;27.42;6.75;;;10.30;99.90;;;;;;5064684;28;20048;-67
2022/01/03 10:16:13;;;;;;;25.80;4.82;;;10.20;99.90;;;;;;5063241;28;20037;-67
2022/01/03 10:18:38;;;;;;;24.70;4.55;;;10.20;99.90;;;;;;5066092;28;20086;-67
2022/01/03 10:21:06;;;;;;;22.08;4.07;;;10.20;99.90;;;;;;5062650;28;20075;-67
2022/01/03 10:23:55;;;;;;;23.30;4.30;;;10.20;99.90;;;;;;5063209;28;20047;-67
2022/01/03 10:26:21;;;;;;;20.67;3.67;;;10.20;99.90;;;;;;5034151;28;20118;-67
2022/01/03 10:28:47;;;;;;;27.67;4.47;;;10.20;99.90;;;;;;5066446;28;20040;-67
2022/01/03 10:31:18;;;;;;;26.95;4.40;;;10.20;99.90;;;;;;5064771;28;20111;-67
2022/01/03 10:33:45;;;;;;;21.15;3.75;;;10.20;99.90;;;;;;5063865;28;20135;-67
2022/01/03 10:36:27;;;;;;;27.30;4.20;;;10.20;99.90;;;;;;5065107;28;20056;-67
2022/01/03 10:38:53;;;;;;;28.70;4.50;;;10.20;99.90;;;;;;5063101;28;20164;-67
2022/01/03 10:41:21;;;;;;;22.27;4.30;;;10.20;99.90;;;;;;5064002;28;20122;-67
2022/01/03 10:43:51;;;;;;;25.60;4.25;;;10.20;99.90;;;;;;5063993;28;20577;-67
2022/01/03 10:46:26;;;;;;;22.05;4.18;;;10.20;99.90;;;;;;5064985;28;20132;-67
2022/01/03 10:48:53;;;;;;;23.95;4.32;;;10.10;99.90;;;;;;5063839;28;20119;-67
2022/01/03 10:51:28;;;;;;;21.92;4.00;;;10.20;99.90;;;;;;5065605;28;20592;-67
2022/01/03 10:53:54;;;;;;;;;;;10.20;99.90;;;;;;5064313;28;20598;-67
2022/01/03 10:56:33;;;;;;;19.33;4.00;;;10.20;99.90;;;;;;5064989;28;19928;-67
2022/01/03 10:59:09;;;;;;;22.50;3.80;;;10.20;99.90;;;;;;5063444;28;20372;-67
2022/01/03 11:01:35;;;;;;;27.92;4.63;;;10.30;99.90;;;;;;5081995;28;20052;-68
2022/01/03 11:04:02;;;;;;;27.35;4.78;;;10.30;99.90;;;;;;5065549;28;20036;-68
2022/01/03 11:11:43;;;;;;;21.85;3.67;;;10.40;99.90;;;;;;5064110;28;20507;-68
2022/01/03 11:14:28;;;;;;;24.00;3.95;;;10.50;99.90;;;;;;5055606;28;20049;-68
2022/01/03 11:16:54;;;;;;;21.55;3.75;;;10.50;99.90;;;;;;5062828;28;20039;-67
2022/01/03 11:19:35;;;;;;;29.65;3.83;;;10.50;99.90;;;;;;5063101;28;20522;-67
2022/01/03 11:22:01;;;;;;;26.80;5.00;;;10.50;99.90;;;;;;5058590;28;20093;-67
2022/01/03 11:24:26;;;;;;;22.73;4.70;;;10.50;99.90;;;;;;5065806;28;20123;-67
2022/01/03 11:26:54;;;;;;;23.23;3.97;;;10.50;99.90;;;;;;5064360;28;20042;-68
2022/01/03 11:29:20;;;;;;;25.90;5.22;;;10.50;99.90;;;;;;5065885;28;20476;-67
2022/01/03 11:31:50;;;;;;;25.25;4.65;;;10.50;99.90;;;;;;5054667;28;20028;-67
2022/01/03 11:34:23;;;;;;;23.80;5.05;;;10.50;99.90;;;;;;5063308;28;20390;-68
2022/01/03 11:36:49;;;;;;;24.98;6.35;;;10.50;99.90;;;;;;5056430;28;20090;-68
2022/01/03 11:39:19;;;;;;;23.77;4.03;;;10.60;99.90;;;;;;5061769;28;20029;-68
2022/01/03 11:41:45;;;;;;;27.95;4.63;;;10.60;99.90;;;;;;5067916;28;20050;-68
2022/01/03 11:44:12;;;;;;;24.85;4.43;;;10.70;99.90;;;;;;5066775;28;20029;-68
2022/01/03 11:46:41;;;;;;;27.52;5.07;;;10.70;99.90;;;;;;5047677;28;20051;-68
2022/01/03 11:49:06;;;;;;;26.27;4.22;;;10.70;99.90;;;;;;5067055;28;20101;-68
2022/01/03 11:51:34;;;;;;;27.52;4.30;;;10.80;99.90;;;;;;5068062;28;20036;-68
2022/01/03 11:54:02;;;;;;;26.17;4.30;;;10.80;99.90;;;;;;5063202;28;20044;-68
2022/01/03 11:56:29;;;;;;;26.15;4.10;;;10.90;99.90;;;;;;5062772;28;20040;-68
2022/01/03 12:04:40;;;;;;;22.15;4.13;;;11.00;99.90;;;;;;5057269;28;20044;-68
2022/01/03 12:07:12;;;;;;;30.33;4.47;;;10.90;99.90;;;;;;5054308;28;20499;-68
2022/01/03 12:09:43;;;;;;;21.02;4.20;;;10.90;99.90;;;;;;5060325;28;20493;-68
2022/01/03 12:12:09;;;;;;;20.52;3.60;;;10.90;99.90;;;;;;5065014;28;20451;-68
2022/01/03 12:14:47;;;;;;;22.23;4.53;;;10.90;99.90;;;;;;5060316;28;20094;-68
2022/01/03 12:17:14;;;;;;;18.83;3.45;;;10.90;99.90;;;;;;5056535;28;20063;-68
2022/01/03 12:19:42;;;;;;;22.48;4.13;;;10.90;99.90;;;;;;5061219;28;20107;-68
2022/01/03 12:22:23;;;;;;;21.35;4.20;;;11.00;99.90;;;;;;5059917;28;20046;-68
2022/01/03 12:24:52;;;;;;;27.63;4.63;;;10.90;99.90;;;;;;5062915;28;20050;-68
2022/01/03 12:27:36;;;;;;;23.98;3.83;;;10.90;99.90;;;;;;5060760;28;20404;-68
2022/01/03 12:30:02;;;;;;;29.25;4.40;;;10.90;99.90;;;;;;5060243;28;20036;-68
2022/01/03 12:32:31;;;;;;;58.85;32.10;;;11.00;99.90;;;;;;5062752;28;20438;-68
2022/01/03 12:35:09;;;;;;;28.23;4.60;;;11.00;99.90;;;;;;5054299;28;20040;-68
2022/01/03 12:37:36;;;;;;;26.95;4.78;;;11.00;99.90;;;;;;5056359;28;20052;-68
2022/01/03 12:40:02;;;;;;;21.80;4.00;;;11.00;99.90;;;;;;5057707;28;20052;-67
2022/01/03 12:42:51;;;;;;;26.08;4.50;;;11.00;99.90;;;;;;5055852;28;20037;-68
2022/01/03 12:45:37;;;;;;;28.42;4.75;;;11.10;99.90;;;;;;5054015;28;20117;-68
2022/01/03 12:48:09;;;;;;;20.73;3.92;;;11.00;99.90;;;;;;5036474;28;20531;-68
2022/01/03 12:50:43;;;;;;;23.35;3.97;;;11.00;99.90;;;;;;5060430;28;20028;-68
2022/01/03 12:53:12;;;;;;;22.52;4.45;;;11.00;99.90;;;;;;5057718;28;20746;-68
2022/01/03 12:55:38;;;;;;;27.02;5.25;;;10.90;99.90;;;;;;5056394;28;20037;-68
2022/01/03 12:58:18;;;;;;;23.92;4.20;;;10.80;99.90;;;;;;5062499;28;20033;-68
2022/01/03 13:00:57;;;;;;;30.38;5.00;;;10.90;99.90;;;;;;5060421;28;20131;-68
2022/01/03 13:03:30;;;;;;;25.98;5.35;;;10.90;99.90;;;;;;5064314;28;20421;-68
2022/01/03 13:06:19;;;;;;;22.55;4.15;;;10.90;99.90;;;;;;5054783;28;20244;-68
2022/01/03 13:08:48;;;;;;;31.02;4.85;;;10.90;99.90;;;;;;5055436;28;20117;-68
2022/01/03 13:11:19;;;;;;;26.10;5.80;;;10.90;99.90;;;;;;5061020;28;20060;-68
2022/01/03 13:14:01;;;;;;;33.35;5.05;;;10.90;99.90;;;;;;5066928;28;20041;-68